Terminal Aerodrome Forecast
Issued by NWS Billings, MT

Home | Current Version | Previous Version | Text Only | Print | Product List | Glossary Off
Versions: 1 2 3 4 5 6 7 8 9 10 11 12 13 14 15

000
FTUS45 KBYZ 222338
TAFMLS
TAF
KMLS 222338Z 2300/2324 10016KT P6SM VCSH SCT060 BKN100
     FM231000 30020G30KT P6SM VCSH BKN050 BKN080
     FM231500 30025G35KT P6SM VCSH BKN050 BKN080=

USA.gov is the U.S. government's official web portal to all federal, state and local government web resources and services.